AVA9741 SKCG-SKBO
Flight info
| Callsign | AVA9741 |
|---|---|
| Flight time | 0h 55m |
| Altitude | 35000 |
| Route | ILMIK2A UGALU UL305 ATANA ATANA5E |
| Aircraft | A320/M-SDE3FGHIRWY/LB1 |
Departure
| Time | 2026-05-05 02:09 |
|---|---|
| Airport | Rafael Nuñez International Airport (SKCG) |
Arrival
| Time | 2026-05-05 03:04 |
|---|---|
| Airport | El Dorado International Airport (SKBO) |
| Time | Latitude | Longitude | Altitude | Speed | Heading |
|---|---|---|---|---|---|
| 2026-05-05 01:45 | 10.44523 | -75.51565 | 14 ft | 0 kts | 271° |
| 2026-05-05 02:00 | 10.44523 | -75.51560 | 14 ft | 3 kts | 271° |
| 2026-05-05 02:00 | 10.44523 | -75.51533 | 14 ft | 3 kts | 271° |
| 2026-05-05 02:00 | 10.44524 | -75.51511 | 14 ft | 4 kts | 250° |
| 2026-05-05 02:00 | 10.44538 | -75.51488 | 14 ft | 4 kts | 222° |
| 2026-05-05 02:01 | 10.44560 | -75.51473 | 15 ft | 4 kts | 202° |
| 2026-05-05 02:01 | 10.44585 | -75.51465 | 17 ft | 4 kts | 183° |
| 2026-05-05 02:01 | 10.44568 | -75.51460 | 15 ft | 4 kts | 153° |
| 2026-05-05 02:01 | 10.44552 | -75.51440 | 15 ft | 4 kts | 117° |
| 2026-05-05 02:02 | 10.44546 | -75.51414 | 14 ft | 4 kts | 97° |
| 2026-05-05 02:02 | 10.44546 | -75.51401 | 14 ft | 0 kts | 91° |
| 2026-05-05 02:06 | 10.44545 | -75.51379 | 14 ft | 7 kts | 91° |
| 2026-05-05 02:06 | 10.44541 | -75.51341 | 15 ft | 5 kts | 92° |
| 2026-05-05 02:06 | 10.44590 | -75.51280 | 15 ft | 16 kts | 13° |
| 2026-05-05 02:06 | 10.44702 | -75.51273 | 17 ft | 16 kts | 2° |
| 2026-05-05 02:07 | 10.44817 | -75.51267 | 18 ft | 17 kts | 2° |
| 2026-05-05 02:07 | 10.44939 | -75.51262 | 18 ft | 18 kts | 2° |
| 2026-05-05 02:07 | 10.45069 | -75.51257 | 17 ft | 20 kts | 2° |
| 2026-05-05 02:07 | 10.45215 | -75.51252 | 16 ft | 22 kts | 358° |
| 2026-05-05 02:08 | 10.45317 | -75.51270 | 16 ft | 5 kts | 37° |
| 2026-05-05 02:08 | 10.45308 | -75.51261 | 18 ft | 1 kts | 150° |
| 2026-05-05 02:08 | 10.45304 | -75.51259 | 19 ft | 2 kts | 150° |
| 2026-05-05 02:08 | 10.45263 | -75.51254 | 20 ft | 9 kts | 203° |
| 2026-05-05 02:09 | 10.44972 | -75.51254 | 19 ft | 78 kts | 182° |
| 2026-05-05 02:09 | 10.44207 | -75.51292 | 12 ft | 139 kts | 182° |
| 2026-05-05 02:09 | 10.43113 | -75.51344 | 292 ft | 160 kts | 184° |
| 2026-05-05 02:09 | 10.41999 | -75.51400 | 944 ft | 160 kts | 185° |
| 2026-05-05 02:10 | 10.40885 | -75.51443 | 1576 ft | 161 kts | 183° |
| 2026-05-05 02:10 | 10.39741 | -75.51424 | 2006 ft | 172 kts | 179° |
| 2026-05-05 02:10 | 10.38486 | -75.51370 | 2214 ft | 193 kts | 179° |
| 2026-05-05 02:10 | 10.37067 | -75.51304 | 2404 ft | 214 kts | 179° |
| 2026-05-05 02:11 | 10.35553 | -75.51234 | 2802 ft | 220 kts | 179° |
| 2026-05-05 02:11 | 10.34014 | -75.51164 | 3304 ft | 222 kts | 179° |
| 2026-05-05 02:11 | 10.32462 | -75.51095 | 3799 ft | 224 kts | 179° |
| 2026-05-05 02:11 | 10.30898 | -75.51027 | 4291 ft | 226 kts | 179° |
| 2026-05-05 02:12 | 10.29322 | -75.50961 | 4765 ft | 229 kts | 179° |
| 2026-05-05 02:12 | 10.25875 | -75.50820 | 5352 ft | 267 kts | 179° |
| 2026-05-05 02:12 | 10.23947 | -75.50742 | 5778 ft | 283 kts | 179° |
| 2026-05-05 02:13 | 10.21958 | -75.50661 | 6478 ft | 289 kts | 178° |
| 2026-05-05 02:13 | 10.19991 | -75.50325 | 7198 ft | 293 kts | 164° |
| 2026-05-05 02:13 | 10.18024 | -75.49746 | 7944 ft | 296 kts | 164° |
| 2026-05-05 02:13 | 10.16031 | -75.49155 | 8676 ft | 299 kts | 164° |
| 2026-05-05 02:14 | 10.14020 | -75.48555 | 9391 ft | 303 kts | 164° |
| 2026-05-05 02:14 | 10.11989 | -75.47946 | 10093 ft | 306 kts | 164° |
| 2026-05-05 02:14 | 10.09901 | -75.47320 | 10487 ft | 322 kts | 164° |
| 2026-05-05 02:14 | 10.07678 | -75.46655 | 10621 ft | 345 kts | 164° |
| 2026-05-05 02:15 | 10.05299 | -75.45942 | 10758 ft | 365 kts | 164° |
| 2026-05-05 02:15 | 10.02820 | -75.45196 | 11157 ft | 375 kts | 164° |
| 2026-05-05 02:15 | 10.00307 | -75.44437 | 11724 ft | 379 kts | 164° |
| 2026-05-05 02:15 | 9.97789 | -75.43677 | 12301 ft | 383 kts | 164° |
| 2026-05-05 02:16 | 9.95225 | -75.42905 | 12880 ft | 386 kts | 164° |
| 2026-05-05 02:16 | 9.92635 | -75.42125 | 13437 ft | 390 kts | 164° |
| 2026-05-05 02:16 | 9.90025 | -75.41337 | 14005 ft | 393 kts | 164° |
| 2026-05-05 02:16 | 9.87396 | -75.40542 | 14535 ft | 396 kts | 164° |
| 2026-05-05 02:17 | 9.84745 | -75.39741 | 15061 ft | 399 kts | 164° |
| 2026-05-05 02:17 | 9.82069 | -75.38934 | 15577 ft | 402 kts | 164° |
| 2026-05-05 02:17 | 9.79381 | -75.38124 | 16085 ft | 405 kts | 164° |
| 2026-05-05 02:17 | 9.76667 | -75.37307 | 16587 ft | 408 kts | 164° |
| 2026-05-05 02:18 | 9.73941 | -75.36487 | 17075 ft | 411 kts | 164° |
| 2026-05-05 02:18 | 9.71187 | -75.35658 | 17556 ft | 414 kts | 164° |
| 2026-05-05 02:18 | 9.68420 | -75.34827 | 18016 ft | 417 kts | 164° |
| 2026-05-05 02:18 | 9.65627 | -75.33990 | 18501 ft | 420 kts | 164° |
| 2026-05-05 02:19 | 9.62817 | -75.33148 | 18961 ft | 423 kts | 164° |
| 2026-05-05 02:19 | 9.59983 | -75.32298 | 19416 ft | 426 kts | 164° |
| 2026-05-05 02:19 | 9.57129 | -75.31437 | 19853 ft | 428 kts | 163° |
| 2026-05-05 02:19 | 9.54266 | -75.30572 | 20256 ft | 431 kts | 163° |
| 2026-05-05 02:20 | 9.51420 | -75.29713 | 20653 ft | 434 kts | 164° |
| 2026-05-05 02:20 | 9.48517 | -75.28841 | 21047 ft | 436 kts | 164° |
| 2026-05-05 02:20 | 9.45594 | -75.27965 | 21431 ft | 439 kts | 164° |
| 2026-05-05 02:20 | 9.42660 | -75.27085 | 21804 ft | 441 kts | 164° |
| 2026-05-05 02:21 | 9.39708 | -75.26196 | 22163 ft | 443 kts | 164° |
| 2026-05-05 02:21 | 9.36743 | -75.25303 | 22507 ft | 446 kts | 164° |
| 2026-05-05 02:21 | 9.33763 | -75.24407 | 22840 ft | 448 kts | 164° |
| 2026-05-05 02:21 | 9.30769 | -75.23508 | 23161 ft | 450 kts | 164° |
| 2026-05-05 02:22 | 9.27750 | -75.22605 | 23474 ft | 452 kts | 164° |
| 2026-05-05 02:22 | 9.24723 | -75.21715 | 23779 ft | 454 kts | 166° |
| 2026-05-05 02:22 | 9.21638 | -75.21211 | 24081 ft | 455 kts | 173° |
| 2026-05-05 02:22 | 9.18487 | -75.20824 | 24374 ft | 457 kts | 174° |
| 2026-05-05 02:23 | 9.15324 | -75.20444 | 24653 ft | 459 kts | 174° |
| 2026-05-05 02:23 | 9.12143 | -75.20066 | 24923 ft | 460 kts | 174° |
| 2026-05-05 02:23 | 9.08952 | -75.19692 | 25180 ft | 462 kts | 174° |
| 2026-05-05 02:23 | 9.05746 | -75.19314 | 25431 ft | 464 kts | 174° |
| 2026-05-05 02:24 | 9.02525 | -75.18931 | 25677 ft | 466 kts | 174° |
| 2026-05-05 02:24 | 8.99341 | -75.18548 | 25919 ft | 468 kts | 174° |
| 2026-05-05 02:24 | 8.96105 | -75.18162 | 26153 ft | 469 kts | 174° |
| 2026-05-05 02:24 | 8.92858 | -75.17772 | 26384 ft | 471 kts | 174° |
| 2026-05-05 02:25 | 8.89601 | -75.17382 | 26611 ft | 472 kts | 174° |
| 2026-05-05 02:25 | 8.86330 | -75.16991 | 26824 ft | 474 kts | 174° |
| 2026-05-05 02:25 | 8.83042 | -75.16603 | 27033 ft | 475 kts | 174° |
| 2026-05-05 02:25 | 8.79753 | -75.16216 | 27237 ft | 477 kts | 174° |
| 2026-05-05 02:26 | 8.76443 | -75.15824 | 27428 ft | 478 kts | 174° |
| 2026-05-05 02:26 | 8.73133 | -75.15430 | 27617 ft | 480 kts | 174° |
| 2026-05-05 02:26 | 8.69817 | -75.15034 | 27798 ft | 481 kts | 174° |
| 2026-05-05 02:26 | 8.66489 | -75.14638 | 27975 ft | 482 kts | 174° |
| 2026-05-05 02:27 | 8.63142 | -75.14241 | 28139 ft | 484 kts | 174° |
| 2026-05-05 02:27 | 8.59843 | -75.13847 | 28307 ft | 485 kts | 174° |
| 2026-05-05 02:27 | 8.56491 | -75.13445 | 28464 ft | 486 kts | 174° |
| 2026-05-05 02:27 | 8.53122 | -75.13040 | 28620 ft | 487 kts | 174° |
| 2026-05-05 02:28 | 8.49758 | -75.12635 | 28834 ft | 486 kts | 174° |
| 2026-05-05 02:28 | 8.46399 | -75.12232 | 29061 ft | 486 kts | 174° |
| 2026-05-05 02:28 | 8.43046 | -75.11830 | 29273 ft | 485 kts | 174° |
| 2026-05-05 02:28 | 8.39683 | -75.11428 | 29488 ft | 485 kts | 174° |
| 2026-05-05 02:29 | 8.36330 | -75.11029 | 29702 ft | 484 kts | 174° |
| 2026-05-05 02:29 | 8.33020 | -75.10635 | 29917 ft | 484 kts | 174° |
| 2026-05-05 02:29 | 8.29671 | -75.10237 | 30135 ft | 484 kts | 174° |
| 2026-05-05 02:29 | 8.26326 | -75.09839 | 30352 ft | 483 kts | 174° |
| 2026-05-05 02:30 | 8.22989 | -75.09440 | 30567 ft | 483 kts | 174° |
| 2026-05-05 02:30 | 8.19654 | -75.09044 | 30781 ft | 482 kts | 174° |
| 2026-05-05 02:30 | 8.16324 | -75.08652 | 30996 ft | 482 kts | 174° |
| 2026-05-05 02:30 | 8.12989 | -75.08258 | 31208 ft | 482 kts | 174° |
| 2026-05-05 02:31 | 8.09663 | -75.07863 | 31424 ft | 481 kts | 174° |
| 2026-05-05 02:31 | 8.06341 | -75.07469 | 31638 ft | 481 kts | 174° |
| 2026-05-05 02:31 | 8.03017 | -75.07073 | 31856 ft | 480 kts | 174° |
| 2026-05-05 02:31 | 7.99707 | -75.06678 | 32068 ft | 480 kts | 174° |
| 2026-05-05 02:32 | 7.96388 | -75.06282 | 32287 ft | 479 kts | 174° |
| 2026-05-05 02:32 | 7.93075 | -75.05889 | 32499 ft | 479 kts | 174° |
| 2026-05-05 02:32 | 7.89811 | -75.05503 | 32706 ft | 478 kts | 174° |
| 2026-05-05 02:32 | 7.86505 | -75.05110 | 32922 ft | 478 kts | 174° |
| 2026-05-05 02:33 | 7.83203 | -75.04719 | 33137 ft | 478 kts | 174° |
| 2026-05-05 02:33 | 7.79906 | -75.04327 | 33346 ft | 477 kts | 174° |
| 2026-05-05 02:33 | 7.76608 | -75.03933 | 33562 ft | 477 kts | 174° |
| 2026-05-05 02:33 | 7.73310 | -75.03540 | 33770 ft | 476 kts | 174° |
| 2026-05-05 02:34 | 7.70017 | -75.03153 | 33986 ft | 476 kts | 174° |
| 2026-05-05 02:34 | 7.66727 | -75.02763 | 34183 ft | 475 kts | 174° |
| 2026-05-05 02:34 | 7.63441 | -75.02376 | 34372 ft | 475 kts | 174° |
| 2026-05-05 02:34 | 7.60162 | -75.01991 | 34557 ft | 475 kts | 174° |
| 2026-05-05 02:35 | 7.56881 | -75.01602 | 34739 ft | 474 kts | 174° |
| 2026-05-05 02:35 | 7.53605 | -75.01211 | 34871 ft | 475 kts | 174° |
| 2026-05-05 02:35 | 7.50316 | -75.00820 | 34899 ft | 477 kts | 174° |
| 2026-05-05 02:36 | 7.43719 | -75.00037 | 34897 ft | 477 kts | 174° |
| 2026-05-05 02:36 | 7.37155 | -74.99256 | 34897 ft | 477 kts | 174° |
| 2026-05-05 02:37 | 7.30554 | -74.98478 | 34897 ft | 477 kts | 174° |
| 2026-05-05 02:37 | 7.23954 | -74.97698 | 34896 ft | 477 kts | 174° |
| 2026-05-05 02:38 | 7.17349 | -74.96915 | 34894 ft | 477 kts | 174° |
| 2026-05-05 02:38 | 7.10753 | -74.96132 | 34891 ft | 477 kts | 174° |
| 2026-05-05 02:39 | 7.04146 | -74.95341 | 34891 ft | 477 kts | 174° |
| 2026-05-05 02:39 | 6.97593 | -74.94565 | 34891 ft | 477 kts | 174° |
| 2026-05-05 02:40 | 6.90979 | -74.93790 | 34891 ft | 477 kts | 174° |
| 2026-05-05 02:40 | 6.84376 | -74.93008 | 34891 ft | 477 kts | 174° |
| 2026-05-05 02:41 | 6.77768 | -74.92230 | 34892 ft | 477 kts | 174° |
| 2026-05-05 02:41 | 6.71206 | -74.91457 | 34893 ft | 478 kts | 174° |
| 2026-05-05 02:42 | 6.64605 | -74.90673 | 34896 ft | 478 kts | 174° |
| 2026-05-05 02:42 | 6.58000 | -74.89890 | 34898 ft | 478 kts | 174° |
| 2026-05-05 02:43 | 6.51398 | -74.89107 | 34899 ft | 478 kts | 174° |
| 2026-05-05 02:43 | 6.44792 | -74.88333 | 34901 ft | 478 kts | 174° |
| 2026-05-05 02:44 | 6.38182 | -74.87557 | 34902 ft | 478 kts | 174° |
| 2026-05-05 02:44 | 6.31571 | -74.86771 | 34904 ft | 478 kts | 174° |
| 2026-05-05 02:45 | 6.24963 | -74.85988 | 34904 ft | 478 kts | 174° |
| 2026-05-05 02:45 | 6.18346 | -74.85210 | 34904 ft | 478 kts | 174° |
| 2026-05-05 02:46 | 6.11739 | -74.84430 | 34903 ft | 478 kts | 174° |
| 2026-05-05 02:46 | 6.05167 | -74.83660 | 34905 ft | 478 kts | 174° |
| 2026-05-05 02:47 | 5.98543 | -74.83600 | 34905 ft | 476 kts | 189° |
| 2026-05-05 02:47 | 5.92101 | -74.85186 | 34894 ft | 476 kts | 196° |
| 2026-05-05 02:47 | 5.88908 | -74.86051 | 34595 ft | 476 kts | 196° |
| 2026-05-05 02:48 | 5.85694 | -74.86917 | 33574 ft | 480 kts | 195° |
| 2026-05-05 02:48 | 5.82455 | -74.87788 | 32576 ft | 483 kts | 195° |
| 2026-05-05 02:48 | 5.80300 | -74.88367 | 31905 ft | 485 kts | 195° |
| 2026-05-05 02:48 | 5.77033 | -74.89246 | 30842 ft | 488 kts | 195° |
| 2026-05-05 02:49 | 5.72673 | -74.90415 | 29358 ft | 491 kts | 195° |
| 2026-05-05 02:49 | 5.69358 | -74.91305 | 28149 ft | 494 kts | 195° |
| 2026-05-05 02:49 | 5.66024 | -74.92199 | 26948 ft | 496 kts | 195° |
| 2026-05-05 02:49 | 5.63808 | -74.92793 | 26319 ft | 494 kts | 195° |
| 2026-05-05 02:50 | 5.60523 | -74.93673 | 25634 ft | 485 kts | 195° |
| 2026-05-05 02:50 | 5.57282 | -74.94541 | 24828 ft | 479 kts | 195° |
| 2026-05-05 02:50 | 5.54072 | -74.95401 | 24048 ft | 474 kts | 195° |
| 2026-05-05 02:50 | 5.50905 | -74.96253 | 23290 ft | 469 kts | 196° |
| 2026-05-05 02:51 | 5.47777 | -74.97096 | 22741 ft | 460 kts | 196° |
| 2026-05-05 02:51 | 5.44739 | -74.97913 | 22613 ft | 443 kts | 195° |
| 2026-05-05 02:51 | 5.41803 | -74.98656 | 22483 ft | 428 kts | 191° |
| 2026-05-05 02:51 | 5.38888 | -74.98893 | 22357 ft | 414 kts | 178° |
| 2026-05-05 02:52 | 5.36077 | -74.98522 | 22194 ft | 403 kts | 167° |
| 2026-05-05 02:52 | 5.33446 | -74.97616 | 21788 ft | 399 kts | 157° |
| 2026-05-05 02:52 | 5.30909 | -74.96533 | 21092 ft | 392 kts | 156° |
| 2026-05-05 02:52 | 5.28632 | -74.95163 | 20747 ft | 386 kts | 140° |
| 2026-05-05 02:53 | 5.26807 | -74.93201 | 20501 ft | 385 kts | 125° |
| 2026-05-05 02:53 | 5.25249 | -74.90976 | 20244 ft | 384 kts | 124° |
| 2026-05-05 02:53 | 5.23749 | -74.88802 | 19995 ft | 383 kts | 124° |
| 2026-05-05 02:53 | 5.22239 | -74.86602 | 19745 ft | 382 kts | 124° |
| 2026-05-05 02:54 | 5.20735 | -74.84407 | 19501 ft | 382 kts | 124° |
| 2026-05-05 02:54 | 5.19232 | -74.82214 | 19251 ft | 379 kts | 124° |
| 2026-05-05 02:54 | 5.17739 | -74.80038 | 18994 ft | 378 kts | 124° |
| 2026-05-05 02:54 | 5.16251 | -74.77872 | 18743 ft | 376 kts | 124° |
| 2026-05-05 02:55 | 5.14771 | -74.75719 | 18494 ft | 375 kts | 124° |
| 2026-05-05 02:55 | 5.13294 | -74.73570 | 18243 ft | 373 kts | 124° |
| 2026-05-05 02:55 | 5.11828 | -74.71434 | 17943 ft | 370 kts | 124° |
| 2026-05-05 02:55 | 5.10366 | -74.69307 | 17477 ft | 369 kts | 124° |
| 2026-05-05 02:56 | 5.08909 | -74.67190 | 17005 ft | 368 kts | 124° |
| 2026-05-05 02:56 | 5.07457 | -74.65077 | 16539 ft | 367 kts | 124° |
| 2026-05-05 02:56 | 5.06008 | -74.62971 | 16073 ft | 367 kts | 124° |
| 2026-05-05 02:56 | 5.04565 | -74.60876 | 15651 ft | 364 kts | 124° |
| 2026-05-05 02:57 | 5.03149 | -74.58820 | 15301 ft | 360 kts | 124° |
| 2026-05-05 02:57 | 5.01720 | -74.56745 | 14785 ft | 361 kts | 124° |
| 2026-05-05 02:57 | 5.00306 | -74.54686 | 14476 ft | 356 kts | 124° |
| 2026-05-05 02:57 | 4.98902 | -74.52646 | 14043 ft | 354 kts | 124° |
| 2026-05-05 02:58 | 4.97503 | -74.50616 | 13610 ft | 352 kts | 124° |
| 2026-05-05 02:58 | 4.96121 | -74.48610 | 13423 ft | 343 kts | 124° |
| 2026-05-05 02:58 | 4.94780 | -74.46666 | 13292 ft | 333 kts | 124° |
| 2026-05-05 02:58 | 4.93500 | -74.44809 | 13132 ft | 324 kts | 124° |
| 2026-05-05 02:59 | 4.92205 | -74.42928 | 12630 ft | 328 kts | 124° |
| 2026-05-05 02:59 | 4.90760 | -74.41202 | 12432 ft | 320 kts | 142° |
| 2026-05-05 02:59 | 4.88830 | -74.40098 | 11989 ft | 321 kts | 153° |
| 2026-05-05 02:59 | 4.87058 | -74.38754 | 11596 ft | 319 kts | 126° |
| 2026-05-05 03:00 | 4.86023 | -74.36842 | 11481 ft | 306 kts | 115° |
| 2026-05-05 03:00 | 4.84908 | -74.35087 | 11488 ft | 291 kts | 128° |
| 2026-05-05 03:00 | 4.83666 | -74.33549 | 11494 ft | 278 kts | 128° |
| 2026-05-05 03:00 | 4.82492 | -74.32043 | 11494 ft | 268 kts | 127° |
| 2026-05-05 03:01 | 4.81411 | -74.30610 | 11494 ft | 256 kts | 126° |
| 2026-05-05 03:01 | 4.80344 | -74.29196 | 11355 ft | 250 kts | 127° |
| 2026-05-05 03:01 | 4.79309 | -74.27827 | 11012 ft | 244 kts | 127° |
| 2026-05-05 03:01 | 4.78293 | -74.26486 | 10691 ft | 238 kts | 127° |
| 2026-05-05 03:02 | 4.77303 | -74.25178 | 10383 ft | 233 kts | 127° |
| 2026-05-05 03:02 | 4.76331 | -74.23894 | 10080 ft | 227 kts | 127° |
| 2026-05-05 03:02 | 4.75405 | -74.22671 | 9778 ft | 212 kts | 127° |
| 2026-05-05 03:02 | 4.74542 | -74.21531 | 9505 ft | 199 kts | 127° |
| 2026-05-05 03:03 | 4.73736 | -74.20467 | 9268 ft | 185 kts | 127° |
| 2026-05-05 03:03 | 4.72977 | -74.19464 | 9026 ft | 177 kts | 127° |
| 2026-05-05 03:03 | 4.72249 | -74.18502 | 8789 ft | 174 kts | 127° |
| 2026-05-05 03:03 | 4.71521 | -74.17541 | 8493 ft | 171 kts | 127° |
| 2026-05-05 03:04 | 4.70819 | -74.16612 | 8426 ft | 167 kts | 127° |
| 2026-05-05 03:04 | 4.70118 | -74.15692 | 8372 ft | 158 kts | 127° |
| 2026-05-05 03:04 | 4.69613 | -74.15003 | 8372 ft | 79 kts | 127° |
| 2026-05-05 03:04 | 4.69399 | -74.14727 | 8371 ft | 43 kts | 127° |
| 2026-05-05 03:05 | 4.69400 | -74.14598 | 8372 ft | 14 kts | 40° |
| 2026-05-05 03:05 | 4.69430 | -74.14575 | 8372 ft | 0 kts | 37° |
| 2026-05-05 03:06 | 4.69458 | -74.14554 | 8373 ft | 12 kts | 37° |
| 2026-05-05 03:06 | 4.69539 | -74.14558 | 8373 ft | 13 kts | 315° |
| 2026-05-05 03:06 | 4.69596 | -74.14632 | 8373 ft | 14 kts | 306° |
| 2026-05-05 03:06 | 4.69653 | -74.14710 | 8373 ft | 14 kts | 306° |
| 2026-05-05 03:07 | 4.69714 | -74.14790 | 8373 ft | 15 kts | 316° |
| 2026-05-05 03:07 | 4.69793 | -74.14787 | 8373 ft | 13 kts | 37° |
| 2026-05-05 03:07 | 4.69852 | -74.14724 | 8373 ft | 13 kts | 84° |
| 2026-05-05 03:07 | 4.69809 | -74.14656 | 8373 ft | 11 kts | 114° |
| 2026-05-05 03:08 | 4.69820 | -74.14607 | 8372 ft | 0 kts | 66° |
| 2026-05-05 03:08 | 4.69822 | -74.14603 | 8372 ft | 0 kts | 66° |
| 2026-05-05 03:08 | 4.69823 | -74.14601 | 8372 ft | 1 kts | 66° |
| 2026-05-05 03:08 | 4.69826 | -74.14593 | 8371 ft | 1 kts | 67° |
| 2026-05-05 03:09 | 4.69827 | -74.14592 | 8371 ft | 0 kts | 67° |